createdAt,value
2022-08-24T00:00:43.205Z,21.30
2022-08-24T00:03:12.127Z,21.20
2022-08-24T00:05:40.586Z,21.10
2022-08-24T00:08:08.876Z,21.00
2022-08-24T00:10:37.200Z,20.90
2022-08-24T00:13:05.468Z,20.90
2022-08-24T00:15:33.959Z,20.80
2022-08-24T00:18:03.730Z,20.80
2022-08-24T00:20:32.167Z,20.80
2022-08-24T00:23:00.336Z,20.80
2022-08-24T00:25:28.916Z,20.70
2022-08-24T00:27:58.161Z,20.70
2022-08-24T00:30:26.804Z,20.70
2022-08-24T00:32:55.572Z,20.70
2022-08-24T00:35:25.304Z,20.70
2022-08-24T00:37:54.669Z,20.70
2022-08-24T00:40:27.407Z,20.60
2022-08-24T00:42:57.062Z,20.70
2022-08-24T00:45:25.556Z,20.70
2022-08-24T00:47:59.049Z,20.70
2022-08-24T00:50:36.122Z,20.70
2022-08-24T00:53:11.499Z,20.70
2022-08-24T00:55:43.191Z,20.70
2022-08-24T00:58:17.906Z,20.70
2022-08-24T01:00:53.220Z,20.70
2022-08-24T01:03:22.243Z,20.70
2022-08-24T01:05:52.457Z,20.70
2022-08-24T01:08:22.021Z,20.70
2022-08-24T01:10:53.801Z,20.70
2022-08-24T01:13:24.372Z,20.60
2022-08-24T01:15:55.593Z,20.60
2022-08-24T01:18:44.030Z,20.60
2022-08-24T01:21:19.034Z,20.60
2022-08-24T01:23:51.214Z,20.60
2022-08-24T01:26:25.016Z,20.60
2022-08-24T01:28:58.471Z,20.60
2022-08-24T01:31:27.733Z,20.60
2022-08-24T01:33:57.122Z,20.60
2022-08-24T01:36:31.696Z,20.60
2022-08-24T01:39:05.414Z,20.60
2022-08-24T01:41:33.547Z,20.70
2022-08-24T01:44:01.757Z,20.60
2022-08-24T01:46:30.564Z,20.60
2022-08-24T01:48:59.543Z,20.60
2022-08-24T01:51:31.533Z,20.50
2022-08-24T01:54:02.946Z,20.40
2022-08-24T01:56:33.092Z,20.30
2022-08-24T01:59:02.090Z,20.20
2022-08-24T02:01:31.473Z,20.10
2022-08-24T02:04:03.742Z,20.00
2022-08-24T02:06:32.958Z,19.90
2022-08-24T02:09:02.846Z,19.80
2022-08-24T02:11:33.620Z,19.70
2022-08-24T02:14:02.063Z,19.60
2022-08-24T02:16:30.280Z,19.60
2022-08-24T02:18:59.501Z,19.50
2022-08-24T02:21:27.741Z,19.40
2022-08-24T02:23:56.197Z,19.40
2022-08-24T02:26:25.869Z,19.30
2022-08-24T02:29:03.422Z,19.30
2022-08-24T02:31:33.781Z,19.20
2022-08-24T02:34:02.869Z,19.10
2022-08-24T02:36:31.447Z,19.10
2022-08-24T02:39:00.580Z,19.00
2022-08-24T02:41:30.160Z,18.90
2022-08-24T02:43:59.151Z,18.90
2022-08-24T02:46:30.306Z,18.90
2022-08-24T02:49:11.147Z,18.80
2022-08-24T02:51:47.308Z,18.80
2022-08-24T02:54:21.429Z,18.80
2022-08-24T02:56:54.523Z,18.80
2022-08-24T02:59:24.798Z,18.80
2022-08-24T03:01:54.139Z,18.80
2022-08-24T03:04:23.640Z,18.70
2022-08-24T03:06:52.154Z,18.70
2022-08-24T03:09:20.806Z,18.60
2022-08-24T03:11:54.234Z,18.60
2022-08-24T03:14:22.393Z,18.50
2022-08-24T03:16:50.554Z,18.50
2022-08-24T03:19:19.555Z,18.60
2022-08-24T03:21:47.684Z,18.60
2022-08-24T03:24:17.242Z,18.60
2022-08-24T03:26:46.132Z,18.60
2022-08-24T03:29:16.405Z,18.60
2022-08-24T03:31:45.576Z,18.50
2022-08-24T03:34:14.153Z,18.50
2022-08-24T03:36:46.749Z,18.50
2022-08-24T03:39:17.021Z,18.60
2022-08-24T03:41:45.841Z,18.60
2022-08-24T03:44:15.325Z,18.60
2022-08-24T03:46:45.266Z,18.60
2022-08-24T03:49:14.818Z,18.60
2022-08-24T03:51:43.726Z,18.70
2022-08-24T03:54:13.696Z,18.70
2022-08-24T03:56:42.783Z,18.80
2022-08-24T03:59:11.333Z,18.90
2022-08-24T04:01:44.864Z,18.90
2022-08-24T04:04:13.253Z,18.90
2022-08-24T04:06:44.440Z,19.00
2022-08-24T04:09:14.010Z,19.00
2022-08-24T04:11:46.230Z,18.90
2022-08-24T04:14:27.179Z,18.90
2022-08-24T04:17:10.528Z,19.00
2022-08-24T04:19:57.628Z,19.00
2022-08-24T04:22:32.999Z,19.10
2022-08-24T04:25:01.771Z,19.10
2022-08-24T04:27:37.568Z,19.10
2022-08-24T04:30:06.539Z,19.10
2022-08-24T04:32:47.155Z,19.00
2022-08-24T04:35:15.303Z,19.10
2022-08-24T04:37:43.381Z,19.10
2022-08-24T04:40:12.612Z,19.10
2022-08-24T04:42:46.884Z,19.20
2022-08-24T04:45:17.177Z,19.20
2022-08-24T04:47:46.710Z,19.30
2022-08-24T04:50:14.874Z,19.30
2022-08-24T04:52:44.149Z,19.30
2022-08-24T04:55:17.679Z,19.40
2022-08-24T04:57:46.403Z,19.50
2022-08-24T05:00:15.359Z,19.50
2022-08-24T05:05:34.730Z,19.50
2022-08-24T05:08:03.197Z,19.50
2022-08-24T05:10:33.657Z,19.60
2022-08-24T05:13:02.363Z,19.60
2022-08-24T05:15:31.636Z,19.60
2022-08-24T05:18:01.755Z,19.60
2022-08-24T05:20:31.250Z,19.60
2022-08-24T05:23:03.803Z,19.60
2022-08-24T05:25:36.311Z,19.60
2022-08-24T05:28:05.551Z,19.70
2022-08-24T05:30:37.342Z,19.80
2022-08-24T05:33:09.154Z,19.80
2022-08-24T05:35:38.958Z,19.90
2022-08-24T05:38:11.752Z,20.00
2022-08-24T05:40:40.338Z,20.20
2022-08-24T05:43:09.022Z,20.30
2022-08-24T05:45:37.621Z,20.50
2022-08-24T05:48:05.892Z,20.60
2022-08-24T05:50:58.230Z,20.80
2022-08-24T05:53:31.607Z,20.90
2022-08-24T05:56:04.276Z,21.00
2022-08-24T05:58:32.434Z,21.00
2022-08-24T06:01:07.921Z,21.10
2022-08-24T06:03:36.241Z,21.10
2022-08-24T06:06:08.702Z,21.20
2022-08-24T06:08:41.485Z,21.30
2022-08-24T06:11:12.706Z,21.30
2022-08-24T06:13:41.195Z,21.30
2022-08-24T06:16:47.808Z,21.20
2022-08-24T06:19:01.371Z,21.20
2022-08-24T06:21:32.849Z,21.20
2022-08-24T06:24:02.177Z,21.20
2022-08-24T06:26:50.230Z,21.10
2022-08-24T06:29:20.160Z,21.10
2022-08-24T06:31:54.826Z,21.10
2022-08-24T06:34:26.714Z,21.20
2022-08-24T06:36:56.619Z,21.40
2022-08-24T06:39:27.089Z,22.00
2022-08-24T06:41:57.994Z,22.80
2022-08-24T06:44:34.713Z,23.30
2022-08-24T06:47:11.405Z,23.80
2022-08-24T06:49:41.208Z,24.10
2022-08-24T06:52:11.835Z,24.60
2022-08-24T06:54:40.460Z,25.10
2022-08-24T06:57:10.148Z,25.30
2022-08-24T06:59:38.666Z,26.30
2022-08-24T07:02:09.044Z,27.70
2022-08-24T07:04:38.266Z,29.00
2022-08-24T07:07:26.081Z,30.20
2022-08-24T07:09:54.756Z,30.80
2022-08-24T07:12:23.886Z,30.60
2022-08-24T07:14:53.217Z,30.20
2022-08-24T07:17:21.723Z,29.80
2022-08-24T07:19:51.005Z,29.30
2022-08-24T07:22:40.927Z,29.10
2022-08-24T07:25:11.237Z,29.00
2022-08-24T07:27:40.019Z,28.70
2022-08-24T07:30:26.348Z,29.20
2022-08-24T07:32:56.885Z,29.70
2022-08-24T07:35:26.984Z,30.00
2022-08-24T07:37:57.387Z,30.70
2022-08-24T07:40:26.992Z,31.10
2022-08-24T07:42:56.846Z,31.50
2022-08-24T07:45:26.560Z,32.10
2022-08-24T07:47:55.946Z,33.40
2022-08-24T07:50:57.075Z,33.90
2022-08-24T07:53:32.486Z,34.20
2022-08-24T07:56:12.472Z,35.20
2022-08-24T07:58:44.265Z,36.60
2022-08-24T08:01:12.616Z,37.90
2022-08-24T08:03:40.987Z,38.40
2022-08-24T08:06:16.341Z,39.40
2022-08-24T08:08:47.799Z,40.30
2022-08-24T08:11:16.267Z,39.10
2022-08-24T08:13:44.468Z,38.30
2022-08-24T08:16:12.790Z,38.40
2022-08-24T08:18:41.130Z,39.00
2022-08-24T08:24:20.686Z,39.80
2022-08-24T08:26:54.384Z,41.00
2022-08-24T08:29:28.967Z,42.50
2022-08-24T08:31:58.409Z,43.00
2022-08-24T08:34:27.421Z,42.40
2022-08-24T08:36:57.807Z,41.80
2022-08-24T08:39:28.348Z,41.30
2022-08-24T08:42:30.813Z,40.20
2022-08-24T08:45:08.278Z,39.60
2022-08-24T08:48:24.685Z,39.60
2022-08-24T08:51:15.442Z,38.40
2022-08-24T08:54:13.958Z,37.30
2022-08-24T08:56:59.401Z,37.60
2022-08-24T08:59:43.838Z,38.30
2022-08-24T09:02:29.027Z,39.80
2022-08-24T09:05:38.678Z,41.40
2022-08-24T09:08:17.205Z,43.50
2022-08-24T09:10:56.958Z,45.30
2022-08-24T09:13:49.243Z,46.50
2022-08-24T09:16:50.167Z,48.10
2022-08-24T09:19:34.906Z,49.10
2022-08-24T09:22:11.031Z,49.20
2022-08-24T09:24:57.663Z,49.60
2022-08-24T09:28:01.952Z,50.40
2022-08-24T09:30:45.101Z,50.50
2022-08-24T09:33:23.378Z,49.70
2022-08-24T09:36:08.186Z,49.70
2022-08-24T09:38:59.923Z,49.40
2022-08-24T09:42:15.865Z,49.00
2022-08-24T09:45:19.814Z,46.70
2022-08-24T09:48:30.807Z,46.30
2022-08-24T09:51:31.353Z,47.10
2022-08-24T09:54:25.373Z,48.80
2022-08-24T09:57:12.552Z,48.20
2022-08-24T10:00:03.333Z,47.80
2022-08-24T10:03:16.112Z,48.00
2022-08-24T10:06:04.601Z,49.50
2022-08-24T10:08:52.144Z,49.60
2022-08-24T10:11:31.077Z,49.50
2022-08-24T10:14:07.789Z,50.60
2022-08-24T10:16:45.562Z,50.50
2022-08-24T10:19:39.384Z,50.60
2022-08-24T10:22:17.981Z,49.60
2022-08-24T10:25:03.540Z,49.00
2022-08-24T10:27:46.366Z,50.20
2022-08-24T10:30:38.294Z,49.40
2022-08-24T10:33:16.616Z,49.00
2022-08-24T10:36:04.733Z,49.80
2022-08-24T10:38:55.604Z,49.90
2022-08-24T10:41:58.619Z,49.80
2022-08-24T10:44:48.435Z,50.30
2022-08-24T10:47:23.266Z,50.70
2022-08-24T10:50:30.982Z,50.70
2022-08-24T10:53:22.389Z,52.60
2022-08-24T10:56:04.400Z,53.70
2022-08-24T10:58:51.362Z,52.90
2022-08-24T11:01:27.680Z,52.60
2022-08-24T11:04:04.186Z,52.70
2022-08-24T11:06:34.990Z,53.60
2022-08-24T11:09:09.184Z,55.00
2022-08-24T11:11:40.693Z,55.30
2022-08-24T11:14:25.041Z,56.00
2022-08-24T11:16:57.686Z,55.40
2022-08-24T11:19:35.131Z,55.50
2022-08-24T11:22:05.667Z,55.20
2022-08-24T11:24:43.806Z,55.20
2022-08-24T11:27:24.424Z,55.60
2022-08-24T11:30:00.605Z,54.70
2022-08-24T11:32:32.275Z,55.40
2022-08-24T11:35:07.640Z,56.20
2022-08-24T11:37:37.719Z,57.10
2022-08-24T11:40:10.538Z,57.10
2022-08-24T11:42:53.187Z,53.40
2022-08-24T11:45:28.900Z,50.80
2022-08-24T11:48:13.775Z,50.20
2022-08-24T11:50:46.896Z,51.60
2022-08-24T11:53:25.484Z,51.40
2022-08-24T11:56:05.431Z,51.70
2022-08-24T11:58:48.719Z,52.80
2022-08-24T12:01:24.175Z,53.20
2022-08-24T12:04:05.901Z,52.60
2022-08-24T12:06:45.945Z,52.60
2022-08-24T12:09:28.388Z,52.20
2022-08-24T12:12:09.625Z,51.00
2022-08-24T12:14:45.531Z,50.30
2022-08-24T12:17:20.393Z,50.70
2022-08-24T12:19:52.287Z,51.60
2022-08-24T12:22:22.541Z,52.00
2022-08-24T12:24:53.482Z,51.70
2022-08-24T12:27:27.634Z,50.40
2022-08-24T12:30:05.255Z,49.40
2022-08-24T12:32:40.960Z,50.10
2022-08-24T12:35:16.626Z,51.10
2022-08-24T12:37:49.848Z,51.80
2022-08-24T12:40:26.118Z,51.40
2022-08-24T12:43:02.001Z,50.80
2022-08-24T12:45:30.871Z,51.50
2022-08-24T12:48:07.466Z,51.80
2022-08-24T12:50:45.459Z,51.30
2022-08-24T12:53:31.665Z,50.60
2022-08-24T12:56:48.443Z,49.10
2022-08-24T12:59:24.055Z,48.60
2022-08-24T13:02:02.066Z,48.20
2022-08-24T13:04:38.888Z,48.50
2022-08-24T13:07:10.639Z,48.30
2022-08-24T13:09:42.007Z,47.90
2022-08-24T13:12:52.773Z,47.40
2022-08-24T13:15:57.519Z,47.10
2022-08-24T13:19:10.723Z,46.60
2022-08-24T13:21:54.760Z,46.90
2022-08-24T13:28:29.382Z,46.80
2022-08-24T13:31:21.355Z,45.70
2022-08-24T13:33:52.164Z,44.80
2022-08-24T13:36:56.634Z,43.50
2022-08-24T13:40:09.729Z,42.30
2022-08-24T13:43:11.714Z,41.20
2022-08-24T13:45:47.751Z,40.20
2022-08-24T13:48:27.137Z,38.70
2022-08-24T13:51:22.811Z,37.60
2022-08-24T13:54:09.956Z,37.00
2022-08-24T13:57:24.067Z,36.60
2022-08-24T14:00:33.821Z,36.10
2022-08-24T14:03:20.745Z,35.70
2022-08-24T14:05:57.748Z,35.60
2022-08-24T14:08:37.099Z,35.60
2022-08-24T14:11:12.723Z,35.70
2022-08-24T14:13:58.774Z,35.60
2022-08-24T14:17:19.865Z,35.60
2022-08-24T14:20:01.429Z,35.40
2022-08-24T14:22:37.578Z,35.00
2022-08-24T14:25:18.652Z,34.90
2022-08-24T14:27:49.067Z,34.80
2022-08-24T14:30:54.331Z,34.70
2022-08-24T14:33:28.977Z,34.50
2022-08-24T14:36:16.212Z,34.20
2022-08-24T14:39:06.695Z,34.10
2022-08-24T14:41:51.920Z,33.90
2022-08-24T14:44:30.981Z,33.80
2022-08-24T14:47:07.244Z,33.60
2022-08-24T14:49:44.663Z,33.40
2022-08-24T14:52:24.172Z,33.20
2022-08-24T14:55:11.750Z,33.20
2022-08-24T14:57:51.029Z,33.20
2022-08-24T15:00:22.383Z,33.00
2022-08-24T15:03:20.253Z,32.80
2022-08-24T15:06:25.873Z,32.60
2022-08-24T15:08:55.762Z,32.60
2022-08-24T15:11:27.422Z,32.50
2022-08-24T15:13:59.104Z,32.40
2022-08-24T15:16:35.838Z,32.50
2022-08-24T15:19:09.777Z,32.60
2022-08-24T15:21:48.840Z,32.80
2022-08-24T15:24:28.594Z,32.90
2022-08-24T15:27:08.462Z,32.90
2022-08-24T15:29:47.263Z,33.00
2022-08-24T15:32:15.967Z,33.00
2022-08-24T15:34:48.775Z,33.00
2022-08-24T15:37:25.922Z,32.90
2022-08-24T15:39:54.072Z,33.00
2022-08-24T15:42:24.015Z,32.90
2022-08-24T15:44:52.768Z,33.00
2022-08-24T15:47:27.047Z,32.90
2022-08-24T15:49:58.742Z,32.90
2022-08-24T15:52:44.336Z,32.80
2022-08-24T15:55:32.415Z,32.70
2022-08-24T15:58:15.929Z,32.60
2022-08-24T16:01:01.666Z,32.50
2022-08-24T16:03:46.453Z,32.40
2022-08-24T16:06:34.733Z,32.20
2022-08-24T16:09:05.764Z,32.00
2022-08-24T16:11:38.878Z,31.80
2022-08-24T16:14:14.209Z,31.40
2022-08-24T16:16:45.986Z,31.20
2022-08-24T16:19:24.557Z,31.00
2022-08-24T16:21:58.406Z,30.90
2022-08-24T16:24:31.921Z,30.80
2022-08-24T16:27:05.459Z,30.50
2022-08-24T16:29:55.954Z,30.40
2022-08-24T16:32:32.741Z,30.30
2022-08-24T16:35:20.875Z,30.20
2022-08-24T16:37:49.655Z,30.00
2022-08-24T16:40:18.014Z,29.90
2022-08-24T16:42:46.625Z,29.80
2022-08-24T16:45:19.344Z,29.80
2022-08-24T16:47:48.462Z,29.70
2022-08-24T16:50:17.829Z,29.50
2022-08-24T16:52:46.199Z,29.40
2022-08-24T16:55:14.890Z,29.30
2022-08-24T16:57:43.802Z,29.20
2022-08-24T17:00:17.794Z,29.10
2022-08-24T17:02:48.170Z,29.10
2022-08-24T17:05:23.931Z,29.00
2022-08-24T17:07:52.386Z,28.90
2022-08-24T17:10:23.127Z,28.90
2022-08-24T17:12:51.422Z,28.80
2022-08-24T17:15:21.457Z,28.80
2022-08-24T17:17:55.961Z,28.70
2022-08-24T17:20:24.061Z,28.70
2022-08-24T17:22:52.547Z,28.60
2022-08-24T17:25:20.704Z,28.60
2022-08-24T17:27:49.309Z,28.50
2022-08-24T17:30:18.497Z,28.50
2022-08-24T17:32:48.860Z,28.40
2022-08-24T17:35:17.431Z,28.40
2022-08-24T17:37:45.722Z,28.20
2022-08-24T17:40:17.004Z,28.10
2022-08-24T17:42:51.368Z,28.10
2022-08-24T17:45:20.983Z,28.00
2022-08-24T17:47:52.592Z,27.90
2022-08-24T17:50:24.167Z,27.80
2022-08-24T17:52:59.115Z,27.70
2022-08-24T17:55:29.040Z,27.60
2022-08-24T17:57:58.036Z,27.50
2022-08-24T18:00:26.600Z,27.40
2022-08-24T18:02:56.034Z,27.30
2022-08-24T18:05:24.191Z,27.20
2022-08-24T18:07:54.837Z,27.10
2022-08-24T18:10:25.608Z,27.00
2022-08-24T18:12:53.690Z,26.80
2022-08-24T18:15:33.634Z,26.70
2022-08-24T18:18:08.794Z,26.60
2022-08-24T18:20:39.887Z,26.50
2022-08-24T18:23:11.681Z,26.50
2022-08-24T18:25:45.950Z,26.40
2022-08-24T18:28:16.770Z,26.30
2022-08-24T18:30:46.538Z,26.20
2022-08-24T18:33:17.485Z,26.10
2022-08-24T18:35:47.626Z,26.00
2022-08-24T18:38:15.831Z,25.90
2022-08-24T18:40:52.465Z,25.80
2022-08-24T18:43:23.745Z,25.70
2022-08-24T18:45:52.772Z,25.70
2022-08-24T18:48:22.889Z,25.50
2022-08-24T18:50:51.697Z,25.50
2022-08-24T18:53:20.227Z,25.50
2022-08-24T18:55:48.894Z,25.40
2022-08-24T18:58:17.015Z,25.30
2022-08-24T19:00:45.609Z,25.30
2022-08-24T19:03:18.843Z,25.30
2022-08-24T19:05:48.391Z,25.20
2022-08-24T19:08:16.579Z,25.10
2022-08-24T19:10:45.001Z,25.00
2022-08-24T19:13:16.104Z,24.90
2022-08-24T19:15:46.807Z,24.80
2022-08-24T19:18:16.013Z,24.80
2022-08-24T19:20:49.222Z,24.80
2022-08-24T19:23:22.314Z,24.70
2022-08-24T19:25:51.401Z,24.60
2022-08-24T19:28:20.779Z,24.50
2022-08-24T19:30:49.675Z,24.50
2022-08-24T19:33:25.878Z,24.40
2022-08-24T19:35:54.978Z,24.30
2022-08-24T19:38:26.100Z,24.30
2022-08-24T19:40:57.218Z,24.20
2022-08-24T19:43:27.222Z,24.20
2022-08-24T19:46:07.590Z,24.10
2022-08-24T19:48:38.206Z,24.00
2022-08-24T19:51:09.565Z,24.00
2022-08-24T19:53:39.784Z,23.90
2022-08-24T19:56:09.027Z,23.90
2022-08-24T19:58:47.284Z,23.80
2022-08-24T20:01:19.982Z,23.70
2022-08-24T20:03:48.420Z,23.60
2022-08-24T20:06:20.521Z,23.60
2022-08-24T20:08:50.813Z,23.60
2022-08-24T20:11:20.195Z,23.50
2022-08-24T20:13:55.275Z,23.60
2022-08-24T20:16:27.042Z,23.50
2022-08-24T20:18:56.196Z,23.50
2022-08-24T20:21:28.297Z,23.50
2022-08-24T20:24:00.380Z,23.50
2022-08-24T20:26:32.802Z,23.50
2022-08-24T20:29:00.995Z,23.50
2022-08-24T20:31:29.912Z,23.60
2022-08-24T20:33:58.242Z,23.50
2022-08-24T20:36:29.752Z,23.50
2022-08-24T20:39:01.223Z,23.40
2022-08-24T20:41:29.970Z,23.40
2022-08-24T20:43:58.351Z,23.30
2022-08-24T20:46:27.826Z,23.30
2022-08-24T20:48:57.237Z,23.20
2022-08-24T20:51:25.649Z,23.10
2022-08-24T20:53:53.875Z,23.10
2022-08-24T20:56:30.969Z,23.00
2022-08-24T20:59:01.784Z,23.00
2022-08-24T21:01:30.464Z,22.90
2022-08-24T21:04:04.273Z,22.90
2022-08-24T21:06:33.939Z,22.80
2022-08-24T21:09:02.466Z,22.80
2022-08-24T21:11:32.973Z,22.70
2022-08-24T21:14:01.198Z,22.60
2022-08-24T21:16:29.667Z,22.60
2022-08-24T21:18:57.921Z,22.50
2022-08-24T21:21:26.395Z,22.50
2022-08-24T21:23:54.697Z,22.40
2022-08-24T21:26:26.371Z,22.30
2022-08-24T21:28:57.449Z,22.20
2022-08-24T21:31:26.034Z,22.20
2022-08-24T21:34:11.554Z,22.10
2022-08-24T21:36:40.933Z,22.00
2022-08-24T21:39:11.119Z,22.00
2022-08-24T21:41:40.064Z,21.90
2022-08-24T21:44:09.451Z,21.80
2022-08-24T21:46:40.475Z,21.80
2022-08-24T21:49:11.910Z,21.70
2022-08-24T21:51:40.751Z,21.60
2022-08-24T21:54:09.556Z,21.60
2022-08-24T21:56:37.848Z,21.50
2022-08-24T21:59:06.782Z,21.50
2022-08-24T22:01:38.811Z,21.40
2022-08-24T22:04:06.934Z,21.40
2022-08-24T22:06:35.306Z,21.30
2022-08-24T22:09:04.084Z,21.30
2022-08-24T22:11:32.701Z,21.20
2022-08-24T22:14:01.069Z,21.20
2022-08-24T22:16:29.452Z,21.10
2022-08-24T22:19:00.129Z,21.10
2022-08-24T22:21:31.097Z,21.00
2022-08-24T22:24:04.997Z,21.00
2022-08-24T22:26:33.715Z,20.90
2022-08-24T22:29:02.283Z,20.90
2022-08-24T22:31:32.859Z,20.90
2022-08-24T22:34:05.382Z,20.80
2022-08-24T22:36:33.917Z,20.80
2022-08-24T22:39:02.737Z,20.80
2022-08-24T22:41:31.948Z,20.70
2022-08-24T22:44:17.812Z,20.70
2022-08-24T22:46:46.654Z,20.70
2022-08-24T22:49:16.719Z,20.60
2022-08-24T22:51:45.061Z,20.60
2022-08-24T22:54:13.828Z,20.50
2022-08-24T22:56:44.159Z,20.50
2022-08-24T22:59:16.829Z,20.50
2022-08-24T23:01:47.611Z,20.50
2022-08-24T23:04:19.601Z,20.50
2022-08-24T23:06:47.847Z,20.40
2022-08-24T23:09:16.442Z,20.40
2022-08-24T23:11:45.557Z,20.30
2022-08-24T23:14:15.093Z,20.30
2022-08-24T23:16:47.650Z,20.20
2022-08-24T23:19:37.362Z,20.20
2022-08-24T23:22:07.089Z,20.20
2022-08-24T23:24:35.607Z,20.10
2022-08-24T23:27:05.489Z,20.10
2022-08-24T23:29:34.352Z,20.00
2022-08-24T23:32:02.862Z,20.00
2022-08-24T23:34:32.841Z,20.00
2022-08-24T23:37:00.919Z,19.90
2022-08-24T23:39:29.714Z,19.90
2022-08-24T23:41:58.073Z,19.90
2022-08-24T23:44:29.050Z,19.90
2022-08-24T23:46:58.222Z,19.80
2022-08-24T23:49:27.652Z,19.80
2022-08-24T23:51:58.592Z,19.70
2022-08-24T23:54:27.462Z,19.70
2022-08-24T23:56:56.499Z,19.70
2022-08-24T23:59:28.117Z,19.60
